sensor_id;sensor_type;location;lat;lon;timestamp;P1;durP1;ratioP1;P2;durP2;ratioP2
15528;SDS011;7866;52.280;9.500;2022-08-16T00:00:49;4.78;;;3.60;;
15528;SDS011;7866;52.280;9.500;2022-08-16T00:05:51;5.90;;;3.47;;
15528;SDS011;7866;52.280;9.500;2022-08-16T00:10:55;6.43;;;4.22;;
15528;SDS011;7866;52.280;9.500;2022-08-16T00:15:56;6.05;;;4.00;;
15528;SDS011;7866;52.280;9.500;2022-08-16T00:20:58;4.35;;;3.95;;
15528;SDS011;7866;52.280;9.500;2022-08-16T00:26:01;5.85;;;3.95;;
15528;SDS011;7866;52.280;9.500;2022-08-16T00:31:04;4.80;;;3.92;;
15528;SDS011;7866;52.280;9.500;2022-08-16T00:36:06;4.25;;;3.85;;
15528;SDS011;7866;52.280;9.500;2022-08-16T00:41:09;5.25;;;4.30;;
15528;SDS011;7866;52.280;9.500;2022-08-16T00:46:12;5.30;;;4.20;;
15528;SDS011;7866;52.280;9.500;2022-08-16T00:51:21;5.57;;;4.65;;
15528;SDS011;7866;52.280;9.500;2022-08-16T00:56:27;5.10;;;4.28;;
15528;SDS011;7866;52.280;9.500;2022-08-16T01:01:32;4.88;;;4.38;;
15528;SDS011;7866;52.280;9.500;2022-08-16T01:06:34;5.22;;;4.70;;
15528;SDS011;7866;52.280;9.500;2022-08-16T01:11:38;6.63;;;4.72;;
15528;SDS011;7866;52.280;9.500;2022-08-16T01:16:41;6.85;;;5.05;;
15528;SDS011;7866;52.280;9.500;2022-08-16T01:21:46;5.25;;;4.30;;
15528;SDS011;7866;52.280;9.500;2022-08-16T01:26:55;5.13;;;4.25;;
15528;SDS011;7866;52.280;9.500;2022-08-16T01:32:01;7.60;;;5.07;;
15528;SDS011;7866;52.280;9.500;2022-08-16T01:37:10;5.43;;;4.35;;
15528;SDS011;7866;52.280;9.500;2022-08-16T01:42:14;5.95;;;4.60;;
15528;SDS011;7866;52.280;9.500;2022-08-16T01:47:16;6.30;;;4.47;;
15528;SDS011;7866;52.280;9.500;2022-08-16T01:52:18;7.05;;;4.40;;
15528;SDS011;7866;52.280;9.500;2022-08-16T01:57:21;4.72;;;4.25;;
15528;SDS011;7866;52.280;9.500;2022-08-16T02:02:23;4.70;;;4.30;;
15528;SDS011;7866;52.280;9.500;2022-08-16T02:07:25;5.00;;;4.50;;
15528;SDS011;7866;52.280;9.500;2022-08-16T02:12:29;4.55;;;4.13;;
15528;SDS011;7866;52.280;9.500;2022-08-16T02:17:31;4.72;;;4.20;;
15528;SDS011;7866;52.280;9.500;2022-08-16T02:22:33;4.72;;;4.30;;
15528;SDS011;7866;52.280;9.500;2022-08-16T02:27:36;4.25;;;3.90;;
15528;SDS011;7866;52.280;9.500;2022-08-16T02:32:38;5.50;;;4.32;;
15528;SDS011;7866;52.280;9.500;2022-08-16T02:37:40;3.95;;;3.60;;
15528;SDS011;7866;52.280;9.500;2022-08-16T02:42:44;4.57;;;4.07;;
15528;SDS011;7866;52.280;9.500;2022-08-16T02:47:45;4.50;;;4.05;;
15528;SDS011;7866;52.280;9.500;2022-08-16T02:52:47;4.53;;;3.88;;
15528;SDS011;7866;52.280;9.500;2022-08-16T02:57:50;4.55;;;3.78;;
15528;SDS011;7866;52.280;9.500;2022-08-16T03:02:53;4.97;;;4.47;;
15528;SDS011;7866;52.280;9.500;2022-08-16T03:07:56;6.47;;;3.78;;
15528;SDS011;7866;52.280;9.500;2022-08-16T03:12:59;3.70;;;3.40;;
15528;SDS011;7866;52.280;9.500;2022-08-16T03:18:01;3.63;;;3.33;;
15528;SDS011;7866;52.280;9.500;2022-08-16T03:23:06;4.75;;;3.35;;
15528;SDS011;7866;52.280;9.500;2022-08-16T03:28:09;5.20;;;3.50;;
15528;SDS011;7866;52.280;9.500;2022-08-16T03:33:11;3.60;;;3.30;;
15528;SDS011;7866;52.280;9.500;2022-08-16T03:38:14;5.05;;;3.53;;
15528;SDS011;7866;52.280;9.500;2022-08-16T03:43:18;3.05;;;2.85;;
15528;SDS011;7866;52.280;9.500;2022-08-16T03:48:20;2.80;;;2.60;;
15528;SDS011;7866;52.280;9.500;2022-08-16T03:53:23;3.22;;;3.03;;
15528;SDS011;7866;52.280;9.500;2022-08-16T03:58:26;3.75;;;3.03;;
15528;SDS011;7866;52.280;9.500;2022-08-16T04:03:28;3.67;;;3.08;;
15528;SDS011;7866;52.280;9.500;2022-08-16T04:08:30;3.80;;;3.22;;
15528;SDS011;7866;52.280;9.500;2022-08-16T04:13:33;3.92;;;3.05;;
15528;SDS011;7866;52.280;9.500;2022-08-16T04:18:35;3.20;;;2.97;;
15528;SDS011;7866;52.280;9.500;2022-08-16T04:23:37;4.03;;;3.25;;
15528;SDS011;7866;52.280;9.500;2022-08-16T04:28:41;4.03;;;3.08;;
15528;SDS011;7866;52.280;9.500;2022-08-16T04:33:43;3.65;;;3.35;;
15528;SDS011;7866;52.280;9.500;2022-08-16T04:38:45;3.00;;;2.80;;
15528;SDS011;7866;52.280;9.500;2022-08-16T04:43:48;4.45;;;2.92;;
15528;SDS011;7866;52.280;9.500;2022-08-16T04:48:50;4.32;;;3.38;;
15528;SDS011;7866;52.280;9.500;2022-08-16T04:53:51;3.72;;;3.25;;
15528;SDS011;7866;52.280;9.500;2022-08-16T04:58:55;5.38;;;3.40;;
15528;SDS011;7866;52.280;9.500;2022-08-16T05:03:56;3.30;;;3.00;;
15528;SDS011;7866;52.280;9.500;2022-08-16T05:08:58;3.88;;;3.30;;
15528;SDS011;7866;52.280;9.500;2022-08-16T05:14:01;3.33;;;3.10;;
15528;SDS011;7866;52.280;9.500;2022-08-16T05:19:03;3.20;;;3.00;;
15528;SDS011;7866;52.280;9.500;2022-08-16T05:24:05;2.70;;;2.60;;
15528;SDS011;7866;52.280;9.500;2022-08-16T05:29:09;3.15;;;2.85;;
15528;SDS011;7866;52.280;9.500;2022-08-16T05:34:11;4.07;;;2.85;;
15528;SDS011;7866;52.280;9.500;2022-08-16T05:39:13;3.00;;;2.75;;
15528;SDS011;7866;52.280;9.500;2022-08-16T05:44:16;3.67;;;3.20;;
15528;SDS011;7866;52.280;9.500;2022-08-16T05:49:19;4.60;;;3.10;;
15528;SDS011;7866;52.280;9.500;2022-08-16T05:54:21;3.63;;;3.10;;
15528;SDS011;7866;52.280;9.500;2022-08-16T05:59:25;3.30;;;2.90;;
15528;SDS011;7866;52.280;9.500;2022-08-16T06:04:26;3.25;;;3.05;;
15528;SDS011;7866;52.280;9.500;2022-08-16T06:09:28;4.70;;;3.10;;
15528;SDS011;7866;52.280;9.500;2022-08-16T06:14:31;3.03;;;2.67;;
15528;SDS011;7866;52.280;9.500;2022-08-16T06:19:33;3.30;;;3.00;;
15528;SDS011;7866;52.280;9.500;2022-08-16T06:24:35;3.88;;;2.85;;
15528;SDS011;7866;52.280;9.500;2022-08-16T06:29:38;3.60;;;3.25;;
15528;SDS011;7866;52.280;9.500;2022-08-16T06:34:40;3.42;;;2.85;;
15528;SDS011;7866;52.280;9.500;2022-08-16T06:39:42;5.28;;;3.15;;
15528;SDS011;7866;52.280;9.500;2022-08-16T06:44:45;3.92;;;2.90;;
15528;SDS011;7866;52.280;9.500;2022-08-16T06:49:47;3.20;;;3.00;;
15528;SDS011;7866;52.280;9.500;2022-08-16T06:54:49;5.18;;;3.03;;
15528;SDS011;7866;52.280;9.500;2022-08-16T06:59:52;3.63;;;3.13;;
15528;SDS011;7866;52.280;9.500;2022-08-16T07:04:53;3.33;;;3.05;;
15528;SDS011;7866;52.280;9.500;2022-08-16T07:09:55;3.55;;;3.25;;
15528;SDS011;7866;52.280;9.500;2022-08-16T07:14:58;3.22;;;2.92;;
15528;SDS011;7866;52.280;9.500;2022-08-16T07:20:00;3.30;;;3.00;;
15528;SDS011;7866;52.280;9.500;2022-08-16T07:25:02;3.42;;;2.97;;
15528;SDS011;7866;52.280;9.500;2022-08-16T07:30:08;3.53;;;3.22;;
15528;SDS011;7866;52.280;9.500;2022-08-16T07:35:12;4.78;;;2.83;;
15528;SDS011;7866;52.280;9.500;2022-08-16T07:40:14;4.07;;;3.20;;
15528;SDS011;7866;52.280;9.500;2022-08-16T07:45:17;3.97;;;3.00;;
15528;SDS011;7866;52.280;9.500;2022-08-16T07:50:19;3.67;;;3.38;;
15528;SDS011;7866;52.280;9.500;2022-08-16T07:55:21;3.75;;;3.45;;
15528;SDS011;7866;52.280;9.500;2022-08-16T08:00:25;4.10;;;3.20;;
15528;SDS011;7866;52.280;9.500;2022-08-16T08:05:27;3.55;;;3.22;;
15528;SDS011;7866;52.280;9.500;2022-08-16T08:10:29;2.67;;;2.50;;
15528;SDS011;7866;52.280;9.500;2022-08-16T08:15:32;3.30;;;3.00;;
15528;SDS011;7866;52.280;9.500;2022-08-16T08:20:34;5.47;;;2.65;;
15528;SDS011;7866;52.280;9.500;2022-08-16T08:25:36;3.25;;;2.60;;
15528;SDS011;7866;52.280;9.500;2022-08-16T08:30:39;5.32;;;2.60;;
15528;SDS011;7866;52.280;9.500;2022-08-16T08:35:40;2.90;;;2.75;;
15528;SDS011;7866;52.280;9.500;2022-08-16T08:40:42;4.28;;;3.08;;
15528;SDS011;7866;52.280;9.500;2022-08-16T08:45:46;4.10;;;2.70;;
15528;SDS011;7866;52.280;9.500;2022-08-16T08:50:48;2.30;;;2.20;;
15528;SDS011;7866;52.280;9.500;2022-08-16T08:55:49;3.53;;;2.80;;
15528;SDS011;7866;52.280;9.500;2022-08-16T09:00:52;2.70;;;2.50;;
15528;SDS011;7866;52.280;9.500;2022-08-16T09:05:55;3.00;;;2.80;;
15528;SDS011;7866;52.280;9.500;2022-08-16T09:10:57;3.10;;;2.80;;
15528;SDS011;7866;52.280;9.500;2022-08-16T09:16:00;3.45;;;2.80;;
15528;SDS011;7866;52.280;9.500;2022-08-16T09:21:02;3.58;;;3.17;;
15528;SDS011;7866;52.280;9.500;2022-08-16T09:26:07;3.13;;;2.90;;
15528;SDS011;7866;52.280;9.500;2022-08-16T09:31:12;3.40;;;3.10;;
15528;SDS011;7866;52.280;9.500;2022-08-16T09:36:15;3.03;;;2.72;;
15528;SDS011;7866;52.280;9.500;2022-08-16T09:41:17;3.05;;;2.85;;
15528;SDS011;7866;52.280;9.500;2022-08-16T09:46:20;3.38;;;3.10;;
15528;SDS011;7866;52.280;9.500;2022-08-16T09:51:22;3.80;;;3.33;;
15528;SDS011;7866;52.280;9.500;2022-08-16T09:56:26;2.95;;;2.75;;
15528;SDS011;7866;52.280;9.500;2022-08-16T10:01:32;2.83;;;2.63;;
15528;SDS011;7866;52.280;9.500;2022-08-16T10:06:35;3.15;;;2.95;;
15528;SDS011;7866;52.280;9.500;2022-08-16T10:11:38;2.92;;;2.72;;
15528;SDS011;7866;52.280;9.500;2022-08-16T10:16:59;2.78;;;2.58;;
15528;SDS011;7866;52.280;9.500;2022-08-16T10:22:03;3.03;;;2.63;;
15528;SDS011;7866;52.280;9.500;2022-08-16T10:27:05;3.25;;;2.83;;
15528;SDS011;7866;52.280;9.500;2022-08-16T10:32:09;3.85;;;2.85;;
15528;SDS011;7866;52.280;9.500;2022-08-16T10:37:10;2.90;;;2.70;;
15528;SDS011;7866;52.280;9.500;2022-08-16T10:42:12;3.08;;;2.72;;
15528;SDS011;7866;52.280;9.500;2022-08-16T10:47:17;4.47;;;2.70;;
15528;SDS011;7866;52.280;9.500;2022-08-16T10:52:19;3.08;;;2.83;;
15528;SDS011;7866;52.280;9.500;2022-08-16T10:57:21;2.67;;;2.47;;
15528;SDS011;7866;52.280;9.500;2022-08-16T11:02:25;3.58;;;3.28;;
15528;SDS011;7866;52.280;9.500;2022-08-16T11:07:27;2.97;;;2.75;;
15528;SDS011;7866;52.280;9.500;2022-08-16T11:12:28;2.42;;;2.22;;
15528;SDS011;7866;52.280;9.500;2022-08-16T11:17:31;2.90;;;2.70;;
15528;SDS011;7866;52.280;9.500;2022-08-16T11:22:34;4.63;;;2.95;;
15528;SDS011;7866;52.280;9.500;2022-08-16T11:27:36;3.40;;;3.00;;
15528;SDS011;7866;52.280;9.500;2022-08-16T11:32:40;2.60;;;2.38;;
15528;SDS011;7866;52.280;9.500;2022-08-16T11:37:44;4.18;;;2.97;;
15528;SDS011;7866;52.280;9.500;2022-08-16T11:42:48;4.18;;;3.40;;
15528;SDS011;7866;52.280;9.500;2022-08-16T11:47:51;3.30;;;3.00;;
15528;SDS011;7866;52.280;9.500;2022-08-16T11:52:54;3.20;;;2.90;;
15528;SDS011;7866;52.280;9.500;2022-08-16T11:57:55;2.88;;;2.67;;
15528;SDS011;7866;52.280;9.500;2022-08-16T12:03:00;8.90;;;2.83;;
15528;SDS011;7866;52.280;9.500;2022-08-16T12:08:02;2.65;;;2.45;;
15528;SDS011;7866;52.280;9.500;2022-08-16T12:13:05;3.03;;;2.72;;
15528;SDS011;7866;52.280;9.500;2022-08-16T12:18:09;2.97;;;2.67;;
15528;SDS011;7866;52.280;9.500;2022-08-16T12:23:11;3.67;;;3.03;;
15528;SDS011;7866;52.280;9.500;2022-08-16T12:28:13;3.50;;;2.83;;
15528;SDS011;7866;52.280;9.500;2022-08-16T12:33:17;3.38;;;3.00;;
15528;SDS011;7866;52.280;9.500;2022-08-16T12:38:18;2.45;;;2.35;;
15528;SDS011;7866;52.280;9.500;2022-08-16T12:43:21;2.67;;;2.50;;
15528;SDS011;7866;52.280;9.500;2022-08-16T12:48:25;3.20;;;2.70;;
15528;SDS011;7866;52.280;9.500;2022-08-16T12:53:47;2.78;;;2.60;;
15528;SDS011;7866;52.280;9.500;2022-08-16T12:58:50;4.28;;;2.70;;
15528;SDS011;7866;52.280;9.500;2022-08-16T13:03:55;2.72;;;2.50;;
15528;SDS011;7866;52.280;9.500;2022-08-16T13:08:57;2.45;;;2.25;;
15528;SDS011;7866;52.280;9.500;2022-08-16T13:14:14;2.80;;;2.60;;
15528;SDS011;7866;52.280;9.500;2022-08-16T13:19:17;2.67;;;2.47;;
15528;SDS011;7866;52.280;9.500;2022-08-16T13:24:19;2.47;;;2.38;;
15528;SDS011;7866;52.280;9.500;2022-08-16T13:29:20;2.95;;;2.70;;
15528;SDS011;7866;52.280;9.500;2022-08-16T13:34:23;3.08;;;2.70;;
15528;SDS011;7866;52.280;9.500;2022-08-16T13:39:25;2.65;;;2.35;;
15528;SDS011;7866;52.280;9.500;2022-08-16T13:44:27;2.38;;;2.17;;
15528;SDS011;7866;52.280;9.500;2022-08-16T13:49:30;3.65;;;2.45;;
15528;SDS011;7866;52.280;9.500;2022-08-16T13:54:32;2.75;;;2.33;;
15528;SDS011;7866;52.280;9.500;2022-08-16T13:59:34;2.97;;;2.45;;
15528;SDS011;7866;52.280;9.500;2022-08-16T14:04:37;2.80;;;2.30;;
15528;SDS011;7866;52.280;9.500;2022-08-16T14:09:41;2.35;;;2.20;;
15528;SDS011;7866;52.280;9.500;2022-08-16T14:14:43;2.90;;;2.28;;
15528;SDS011;7866;52.280;9.500;2022-08-16T14:19:46;2.80;;;2.60;;
15528;SDS011;7866;52.280;9.500;2022-08-16T14:24:49;3.90;;;2.45;;
15528;SDS011;7866;52.280;9.500;2022-08-16T14:29:53;2.28;;;2.10;;
15528;SDS011;7866;52.280;9.500;2022-08-16T14:34:58;2.20;;;2.08;;
15528;SDS011;7866;52.280;9.500;2022-08-16T14:40:01;2.40;;;2.20;;
15528;SDS011;7866;52.280;9.500;2022-08-16T14:45:03;3.22;;;2.60;;
15528;SDS011;7866;52.280;9.500;2022-08-16T14:50:09;2.35;;;2.15;;
15528;SDS011;7866;52.280;9.500;2022-08-16T14:55:13;2.70;;;2.50;;
15528;SDS011;7866;52.280;9.500;2022-08-16T15:00:16;3.53;;;2.20;;
15528;SDS011;7866;52.280;9.500;2022-08-16T15:05:19;2.63;;;2.42;;
15528;SDS011;7866;52.280;9.500;2022-08-16T15:10:22;2.60;;;2.40;;
15528;SDS011;7866;52.280;9.500;2022-08-16T15:15:25;3.30;;;2.38;;
15528;SDS011;7866;52.280;9.500;2022-08-16T15:20:31;2.50;;;2.30;;
15528;SDS011;7866;52.280;9.500;2022-08-16T15:25:35;2.50;;;2.30;;
15528;SDS011;7866;52.280;9.500;2022-08-16T15:30:38;2.50;;;1.75;;
15528;SDS011;7866;52.280;9.500;2022-08-16T15:35:42;5.00;;;2.65;;
15528;SDS011;7866;52.280;9.500;2022-08-16T15:40:46;2.95;;;2.42;;
15528;SDS011;7866;52.280;9.500;2022-08-16T15:45:47;2.45;;;2.25;;
15528;SDS011;7866;52.280;9.500;2022-08-16T15:51:08;2.65;;;2.45;;
15528;SDS011;7866;52.280;9.500;2022-08-16T15:56:10;2.55;;;2.35;;
15528;SDS011;7866;52.280;9.500;2022-08-16T16:01:12;2.42;;;2.20;;
15528;SDS011;7866;52.280;9.500;2022-08-16T16:06:19;2.33;;;2.13;;
15528;SDS011;7866;52.280;9.500;2022-08-16T16:11:20;2.67;;;2.42;;
15528;SDS011;7866;52.280;9.500;2022-08-16T16:16:22;2.75;;;2.33;;
15528;SDS011;7866;52.280;9.500;2022-08-16T16:21:25;2.38;;;2.17;;
15528;SDS011;7866;52.280;9.500;2022-08-16T16:26:27;2.50;;;2.30;;
15528;SDS011;7866;52.280;9.500;2022-08-16T16:31:29;2.33;;;2.10;;
15528;SDS011;7866;52.280;9.500;2022-08-16T16:36:33;3.22;;;2.40;;
15528;SDS011;7866;52.280;9.500;2022-08-16T16:41:35;4.30;;;2.45;;
15528;SDS011;7866;52.280;9.500;2022-08-16T16:46:38;2.20;;;2.10;;
15528;SDS011;7866;52.280;9.500;2022-08-16T16:51:42;2.50;;;2.30;;
15528;SDS011;7866;52.280;9.500;2022-08-16T16:56:45;2.47;;;2.30;;
15528;SDS011;7866;52.280;9.500;2022-08-16T17:01:48;2.38;;;2.15;;
15528;SDS011;7866;52.280;9.500;2022-08-16T17:06:51;2.13;;;1.98;;
15528;SDS011;7866;52.280;9.500;2022-08-16T17:11:53;2.30;;;2.10;;
15528;SDS011;7866;52.280;9.500;2022-08-16T17:16:55;4.30;;;2.10;;
15528;SDS011;7866;52.280;9.500;2022-08-16T17:21:58;2.40;;;2.20;;
15528;SDS011;7866;52.280;9.500;2022-08-16T17:26:59;4.25;;;2.58;;
15528;SDS011;7866;52.280;9.500;2022-08-16T17:32:01;2.45;;;2.20;;
15528;SDS011;7866;52.280;9.500;2022-08-16T17:37:04;3.42;;;2.25;;
15528;SDS011;7866;52.280;9.500;2022-08-16T17:42:07;2.50;;;2.30;;
15528;SDS011;7866;52.280;9.500;2022-08-16T17:47:14;3.22;;;2.25;;
15528;SDS011;7866;52.280;9.500;2022-08-16T17:52:17;2.53;;;2.42;;
15528;SDS011;7866;52.280;9.500;2022-08-16T17:57:19;2.40;;;2.20;;
15528;SDS011;7866;52.280;9.500;2022-08-16T18:02:21;2.88;;;2.55;;
15528;SDS011;7866;52.280;9.500;2022-08-16T18:07:25;2.60;;;2.42;;
15528;SDS011;7866;52.280;9.500;2022-08-16T18:12:27;3.10;;;2.83;;
15528;SDS011;7866;52.280;9.500;2022-08-16T18:17:29;2.45;;;2.25;;
15528;SDS011;7866;52.280;9.500;2022-08-16T18:22:32;2.72;;;2.40;;
15528;SDS011;7866;52.280;9.500;2022-08-16T18:27:34;2.45;;;2.25;;
15528;SDS011;7866;52.280;9.500;2022-08-16T18:32:45;2.80;;;2.60;;
15528;SDS011;7866;52.280;9.500;2022-08-16T18:37:49;2.78;;;2.58;;
15528;SDS011;7866;52.280;9.500;2022-08-16T18:42:52;3.10;;;2.63;;
15528;SDS011;7866;52.280;9.500;2022-08-16T18:47:55;3.60;;;2.50;;
15528;SDS011;7866;52.280;9.500;2022-08-16T18:52:59;2.65;;;2.45;;
15528;SDS011;7866;52.280;9.500;2022-08-16T18:58:04;4.40;;;2.42;;
15528;SDS011;7866;52.280;9.500;2022-08-16T19:03:07;3.83;;;2.75;;
15528;SDS011;7866;52.280;9.500;2022-08-16T19:08:11;2.80;;;2.60;;
15528;SDS011;7866;52.280;9.500;2022-08-16T19:13:16;3.42;;;2.50;;
15528;SDS011;7866;52.280;9.500;2022-08-16T19:18:19;3.42;;;2.53;;
15528;SDS011;7866;52.280;9.500;2022-08-16T19:23:23;3.30;;;2.47;;
15528;SDS011;7866;52.280;9.500;2022-08-16T19:28:28;3.42;;;2.78;;
15528;SDS011;7866;52.280;9.500;2022-08-16T19:33:32;3.15;;;2.90;;
15528;SDS011;7866;52.280;9.500;2022-08-16T19:38:35;2.88;;;2.67;;
15528;SDS011;7866;52.280;9.500;2022-08-16T19:43:38;2.60;;;2.40;;
15528;SDS011;7866;52.280;9.500;2022-08-16T19:48:39;5.00;;;3.05;;
15528;SDS011;7866;52.280;9.500;2022-08-16T19:53:44;2.97;;;2.67;;
15528;SDS011;7866;52.280;9.500;2022-08-16T19:58:46;2.85;;;2.65;;
15528;SDS011;7866;52.280;9.500;2022-08-16T20:03:49;3.53;;;2.30;;
15528;SDS011;7866;52.280;9.500;2022-08-16T20:08:52;4.53;;;3.10;;
15528;SDS011;7866;52.280;9.500;2022-08-16T20:13:54;3.08;;;2.78;;
15528;SDS011;7866;52.280;9.500;2022-08-16T20:18:56;3.25;;;2.95;;
15528;SDS011;7866;52.280;9.500;2022-08-16T20:23:59;3.30;;;2.65;;
15528;SDS011;7866;52.280;9.500;2022-08-16T20:29:00;2.97;;;2.70;;
15528;SDS011;7866;52.280;9.500;2022-08-16T20:34:02;3.15;;;2.80;;
15528;SDS011;7866;52.280;9.500;2022-08-16T20:39:06;4.07;;;2.50;;
15528;SDS011;7866;52.280;9.500;2022-08-16T20:44:12;3.63;;;2.80;;
15528;SDS011;7866;52.280;9.500;2022-08-16T20:49:14;3.20;;;2.90;;
15528;SDS011;7866;52.280;9.500;2022-08-16T20:54:17;3.67;;;3.03;;
15528;SDS011;7866;52.280;9.500;2022-08-16T20:59:19;5.30;;;2.95;;
15528;SDS011;7866;52.280;9.500;2022-08-16T21:04:22;3.53;;;2.60;;
15528;SDS011;7866;52.280;9.500;2022-08-16T21:09:28;4.25;;;3.00;;
15528;SDS011;7866;52.280;9.500;2022-08-16T21:14:32;4.38;;;2.90;;
15528;SDS011;7866;52.280;9.500;2022-08-16T21:19:34;3.08;;;2.80;;
15528;SDS011;7866;52.280;9.500;2022-08-16T21:24:38;3.03;;;2.83;;
15528;SDS011;7866;52.280;9.500;2022-08-16T21:29:46;2.95;;;2.65;;
15528;SDS011;7866;52.280;9.500;2022-08-16T21:34:48;3.00;;;2.80;;
15528;SDS011;7866;52.280;9.500;2022-08-16T21:39:52;3.25;;;3.03;;
15528;SDS011;7866;52.280;9.500;2022-08-16T21:44:54;3.40;;;3.10;;
15528;SDS011;7866;52.280;9.500;2022-08-16T21:49:55;3.17;;;2.88;;
15528;SDS011;7866;52.280;9.500;2022-08-16T21:55:00;3.38;;;3.08;;
15528;SDS011;7866;52.280;9.500;2022-08-16T22:00:04;2.80;;;2.60;;
15528;SDS011;7866;52.280;9.500;2022-08-16T22:05:10;6.65;;;3.20;;
15528;SDS011;7866;52.280;9.500;2022-08-16T22:10:14;3.08;;;2.88;;
15528;SDS011;7866;52.280;9.500;2022-08-16T22:15:16;3.13;;;2.88;;
15528;SDS011;7866;52.280;9.500;2022-08-16T22:20:23;3.15;;;2.90;;
15528;SDS011;7866;52.280;9.500;2022-08-16T22:25:28;4.30;;;2.72;;
15528;SDS011;7866;52.280;9.500;2022-08-16T22:30:30;3.13;;;2.90;;
15528;SDS011;7866;52.280;9.500;2022-08-16T22:35:32;3.95;;;3.20;;
15528;SDS011;7866;52.280;9.500;2022-08-16T22:40:35;3.47;;;3.00;;
15528;SDS011;7866;52.280;9.500;2022-08-16T22:45:37;3.05;;;2.85;;
15528;SDS011;7866;52.280;9.500;2022-08-16T22:50:39;3.75;;;3.00;;
15528;SDS011;7866;52.280;9.500;2022-08-16T22:55:41;3.40;;;3.15;;
15528;SDS011;7866;52.280;9.500;2022-08-16T23:00:43;3.00;;;2.80;;
15528;SDS011;7866;52.280;9.500;2022-08-16T23:05:46;3.10;;;2.83;;
15528;SDS011;7866;52.280;9.500;2022-08-16T23:10:50;2.90;;;2.70;;
15528;SDS011;7866;52.280;9.500;2022-08-16T23:15:52;3.10;;;2.80;;
15528;SDS011;7866;52.280;9.500;2022-08-16T23:20:56;2.97;;;2.85;;
15528;SDS011;7866;52.280;9.500;2022-08-16T23:26:02;2.92;;;2.70;;
15528;SDS011;7866;52.280;9.500;2022-08-16T23:31:04;3.78;;;3.40;;
15528;SDS011;7866;52.280;9.500;2022-08-16T23:36:06;3.30;;;3.10;;
15528;SDS011;7866;52.280;9.500;2022-08-16T23:41:10;3.25;;;3.00;;
15528;SDS011;7866;52.280;9.500;2022-08-16T23:46:14;3.88;;;3.17;;
15528;SDS011;7866;52.280;9.500;2022-08-16T23:51:18;3.28;;;2.97;;
15528;SDS011;7866;52.280;9.500;2022-08-16T23:56:21;3.30;;;3.10;;
